sensor_id;sensor_type;location;lat;lon;timestamp;P1;durP1;ratioP1;P2;durP2;ratioP2
46266;SDS011;31998;48.798;15.066;2023-05-07T00:01:56;5.43;;;1.30;;
46266;SDS011;31998;48.798;15.066;2023-05-07T00:04:21;118.43;;;4.83;;
46266;SDS011;31998;48.798;15.066;2023-05-07T00:06:46;2.93;;;1.20;;
46266;SDS011;31998;48.798;15.066;2023-05-07T00:09:11;1.93;;;1.83;;
46266;SDS011;31998;48.798;15.066;2023-05-07T00:11:37;1.83;;;1.83;;
46266;SDS011;31998;48.798;15.066;2023-05-07T00:14:02;2.03;;;2.03;;
46266;SDS011;31998;48.798;15.066;2023-05-07T00:16:27;2.40;;;2.20;;
46266;SDS011;31998;48.798;15.066;2023-05-07T00:18:53;2.00;;;1.80;;
46266;SDS011;31998;48.798;15.066;2023-05-07T00:21:18;4.10;;;1.80;;
46266;SDS011;31998;48.798;15.066;2023-05-07T00:23:43;42.20;;;3.40;;
46266;SDS011;31998;48.798;15.066;2023-05-07T00:26:09;150.17;;;6.13;;
46266;SDS011;31998;48.798;15.066;2023-05-07T00:28:34;2.70;;;1.90;;
46266;SDS011;31998;48.798;15.066;2023-05-07T00:30:59;1.43;;;1.43;;
46266;SDS011;31998;48.798;15.066;2023-05-07T00:33:25;2.00;;;1.13;;
46266;SDS011;31998;48.798;15.066;2023-05-07T00:35:51;76.43;;;3.80;;
46266;SDS011;31998;48.798;15.066;2023-05-07T00:38:17;246.90;;;7.53;;
46266;SDS011;31998;48.798;15.066;2023-05-07T00:40:42;535.53;;;18.47;;
46266;SDS011;31998;48.798;15.066;2023-05-07T00:43:07;37.80;;;3.90;;
46266;SDS011;31998;48.798;15.066;2023-05-07T00:45:32;188.10;;;7.07;;
46266;SDS011;31998;48.798;15.066;2023-05-07T00:47:59;27.10;;;2.50;;
46266;SDS011;31998;48.798;15.066;2023-05-07T00:50:24;1.30;;;1.30;;
46266;SDS011;31998;48.798;15.066;2023-05-07T00:52:50;1.37;;;1.37;;
46266;SDS011;31998;48.798;15.066;2023-05-07T00:55:15;270.63;;;10.70;;
46266;SDS011;31998;48.798;15.066;2023-05-07T00:57:41;12.73;;;1.50;;
46266;SDS011;31998;48.798;15.066;2023-05-07T01:00:07;166.67;;;5.50;;
46266;SDS011;31998;48.798;15.066;2023-05-07T01:02:37;132.77;;;4.47;;
46266;SDS011;31998;48.798;15.066;2023-05-07T01:05:03;1.10;;;1.10;;
46266;SDS011;31998;48.798;15.066;2023-05-07T01:07:31;2.10;;;0.97;;
46266;SDS011;31998;48.798;15.066;2023-05-07T01:09:56;1.20;;;1.20;;
46266;SDS011;31998;48.798;15.066;2023-05-07T01:12:22;0.90;;;0.90;;
46266;SDS011;31998;48.798;15.066;2023-05-07T01:14:47;0.70;;;0.70;;
46266;SDS011;31998;48.798;15.066;2023-05-07T01:17:14;32.67;;;1.70;;
46266;SDS011;31998;48.798;15.066;2023-05-07T01:19:40;1.00;;;0.80;;
46266;SDS011;31998;48.798;15.066;2023-05-07T01:22:07;1.20;;;1.20;;
46266;SDS011;31998;48.798;15.066;2023-05-07T01:24:32;1.00;;;1.00;;
46266;SDS011;31998;48.798;15.066;2023-05-07T01:26:58;1.00;;;1.00;;
46266;SDS011;31998;48.798;15.066;2023-05-07T01:29:24;0.70;;;0.70;;
46266;SDS011;31998;48.798;15.066;2023-05-07T01:31:49;8.20;;;1.10;;
46266;SDS011;31998;48.798;15.066;2023-05-07T01:34:15;281.73;;;11.87;;
46266;SDS011;31998;48.798;15.066;2023-05-07T01:36:42;4.23;;;1.37;;
46266;SDS011;31998;48.798;15.066;2023-05-07T01:39:08;1.13;;;1.13;;
46266;SDS011;31998;48.798;15.066;2023-05-07T01:41:33;1.50;;;0.87;;
46266;SDS011;31998;48.798;15.066;2023-05-07T01:43:59;1.30;;;1.30;;
46266;SDS011;31998;48.798;15.066;2023-05-07T01:46:25;1.10;;;1.10;;
46266;SDS011;31998;48.798;15.066;2023-05-07T01:48:51;3.30;;;1.13;;
46266;SDS011;31998;48.798;15.066;2023-05-07T01:51:16;1.63;;;1.53;;
46266;SDS011;31998;48.798;15.066;2023-05-07T01:53:41;5.80;;;1.50;;
46266;SDS011;31998;48.798;15.066;2023-05-07T01:56:08;15.40;;;2.50;;
46266;SDS011;31998;48.798;15.066;2023-05-07T01:58:33;30.17;;;4.43;;
46266;SDS011;31998;48.798;15.066;2023-05-07T02:00:58;33.17;;;3.77;;
46266;SDS011;31998;48.798;15.066;2023-05-07T02:03:24;17.80;;;3.70;;
46266;SDS011;31998;48.798;15.066;2023-05-07T02:05:49;58.63;;;4.57;;
46266;SDS011;31998;48.798;15.066;2023-05-07T02:08:14;51.00;;;4.80;;
46266;SDS011;31998;48.798;15.066;2023-05-07T02:10:40;3.83;;;3.63;;
46266;SDS011;31998;48.798;15.066;2023-05-07T02:13:05;36.37;;;3.53;;
46266;SDS011;31998;48.798;15.066;2023-05-07T02:15:30;61.90;;;5.47;;
46266;SDS011;31998;48.798;15.066;2023-05-07T02:18:06;15.73;;;4.53;;
46266;SDS011;31998;48.798;15.066;2023-05-07T02:20:31;15.70;;;3.87;;
46266;SDS011;31998;48.798;15.066;2023-05-07T02:22:56;8.70;;;4.47;;
46266;SDS011;31998;48.798;15.066;2023-05-07T02:25:22;22.83;;;4.57;;
46266;SDS011;31998;48.798;15.066;2023-05-07T02:27:47;10.10;;;3.90;;
46266;SDS011;31998;48.798;15.066;2023-05-07T02:30:13;4.63;;;3.67;;
46266;SDS011;31998;48.798;15.066;2023-05-07T02:32:38;4.00;;;3.80;;
46266;SDS011;31998;48.798;15.066;2023-05-07T02:35:04;3.30;;;3.00;;
46266;SDS011;31998;48.798;15.066;2023-05-07T02:37:29;3.50;;;3.30;;
46266;SDS011;31998;48.798;15.066;2023-05-07T02:39:55;15.03;;;4.30;;
46266;SDS011;31998;48.798;15.066;2023-05-07T02:42:20;4.70;;;3.60;;
46266;SDS011;31998;48.798;15.066;2023-05-07T02:44:45;7.67;;;4.00;;
46266;SDS011;31998;48.798;15.066;2023-05-07T02:47:10;23.30;;;4.50;;
46266;SDS011;31998;48.798;15.066;2023-05-07T02:49:38;22.77;;;4.50;;
46266;SDS011;31998;48.798;15.066;2023-05-07T02:52:03;30.73;;;5.33;;
46266;SDS011;31998;48.798;15.066;2023-05-07T02:54:28;23.87;;;5.03;;
46266;SDS011;31998;48.798;15.066;2023-05-07T02:56:53;53.00;;;5.93;;
46266;SDS011;31998;48.798;15.066;2023-05-07T02:59:19;14.83;;;5.30;;
46266;SDS011;31998;48.798;15.066;2023-05-07T03:01:44;49.53;;;7.20;;
46266;SDS011;31998;48.798;15.066;2023-05-07T03:04:10;14.90;;;6.20;;
46266;SDS011;31998;48.798;15.066;2023-05-07T03:06:36;53.67;;;6.23;;
46266;SDS011;31998;48.798;15.066;2023-05-07T03:09:01;9.30;;;4.80;;
46266;SDS011;31998;48.798;15.066;2023-05-07T03:11:26;67.07;;;6.70;;
46266;SDS011;31998;48.798;15.066;2023-05-07T03:13:52;32.33;;;6.27;;
46266;SDS011;31998;48.798;15.066;2023-05-07T03:16:17;30.73;;;6.10;;
46266;SDS011;31998;48.798;15.066;2023-05-07T03:18:42;20.10;;;5.20;;
46266;SDS011;31998;48.798;15.066;2023-05-07T03:21:07;33.37;;;6.13;;
46266;SDS011;31998;48.798;15.066;2023-05-07T03:23:33;65.90;;;6.97;;
46266;SDS011;31998;48.798;15.066;2023-05-07T03:25:58;27.47;;;6.20;;
46266;SDS011;31998;48.798;15.066;2023-05-07T03:28:23;32.40;;;5.77;;
46266;SDS011;31998;48.798;15.066;2023-05-07T03:30:48;52.10;;;6.87;;
46266;SDS011;31998;48.798;15.066;2023-05-07T03:33:14;31.67;;;6.10;;
46266;SDS011;31998;48.798;15.066;2023-05-07T03:35:39;15.53;;;6.13;;
46266;SDS011;31998;48.798;15.066;2023-05-07T03:38:04;73.03;;;8.33;;
46266;SDS011;31998;48.798;15.066;2023-05-07T03:40:29;189.03;;;10.40;;
46266;SDS011;31998;48.798;15.066;2023-05-07T03:42:54;19.63;;;7.40;;
46266;SDS011;31998;48.798;15.066;2023-05-07T03:45:20;104.17;;;9.30;;
46266;SDS011;31998;48.798;15.066;2023-05-07T03:47:45;39.13;;;7.73;;
46266;SDS011;31998;48.798;15.066;2023-05-07T03:50:10;11.30;;;6.47;;
46266;SDS011;31998;48.798;15.066;2023-05-07T03:52:36;80.97;;;7.27;;
46266;SDS011;31998;48.798;15.066;2023-05-07T03:55:01;58.67;;;6.67;;
46266;SDS011;31998;48.798;15.066;2023-05-07T03:57:26;46.07;;;7.57;;
46266;SDS011;31998;48.798;15.066;2023-05-07T03:59:51;71.53;;;7.80;;
46266;SDS011;31998;48.798;15.066;2023-05-07T04:02:17;39.03;;;10.40;;
46266;SDS011;31998;48.798;15.066;2023-05-07T04:04:42;58.80;;;9.80;;
46266;SDS011;31998;48.798;15.066;2023-05-07T04:07:07;55.40;;;10.50;;
46266;SDS011;31998;48.798;15.066;2023-05-07T04:09:32;50.90;;;10.70;;
46266;SDS011;31998;48.798;15.066;2023-05-07T04:11:58;39.57;;;9.10;;
46266;SDS011;31998;48.798;15.066;2023-05-07T04:14:23;16.77;;;9.83;;
46266;SDS011;31998;48.798;15.066;2023-05-07T04:16:48;15.70;;;10.47;;
46266;SDS011;31998;48.798;15.066;2023-05-07T04:19:13;18.50;;;9.90;;
46266;SDS011;31998;48.798;15.066;2023-05-07T04:21:38;21.13;;;10.30;;
46266;SDS011;31998;48.798;15.066;2023-05-07T04:24:04;13.53;;;9.87;;
46266;SDS011;31998;48.798;15.066;2023-05-07T04:26:29;15.33;;;10.20;;
46266;SDS011;31998;48.798;15.066;2023-05-07T04:28:55;13.20;;;9.80;;
46266;SDS011;31998;48.798;15.066;2023-05-07T04:31:20;12.70;;;9.97;;
46266;SDS011;31998;48.798;15.066;2023-05-07T04:33:46;10.20;;;9.20;;
46266;SDS011;31998;48.798;15.066;2023-05-07T04:36:11;10.47;;;9.37;;
46266;SDS011;31998;48.798;15.066;2023-05-07T04:38:36;12.23;;;9.50;;
46266;SDS011;31998;48.798;15.066;2023-05-07T04:41:03;12.43;;;9.80;;
46266;SDS011;31998;48.798;15.066;2023-05-07T04:43:29;10.43;;;9.33;;
46266;SDS011;31998;48.798;15.066;2023-05-07T04:45:54;10.07;;;9.03;;
46266;SDS011;31998;48.798;15.066;2023-05-07T04:48:19;11.20;;;10.00;;
46266;SDS011;31998;48.798;15.066;2023-05-07T04:50:48;10.90;;;9.60;;
46266;SDS011;31998;48.798;15.066;2023-05-07T04:53:14;10.57;;;9.50;;
46266;SDS011;31998;48.798;15.066;2023-05-07T04:55:39;10.00;;;9.20;;
46266;SDS011;31998;48.798;15.066;2023-05-07T04:58:04;10.30;;;9.40;;
46266;SDS011;31998;48.798;15.066;2023-05-07T05:00:30;12.80;;;11.00;;
46266;SDS011;31998;48.798;15.066;2023-05-07T05:02:55;12.20;;;10.00;;
46266;SDS011;31998;48.798;15.066;2023-05-07T05:05:20;13.83;;;12.17;;
46266;SDS011;31998;48.798;15.066;2023-05-07T05:07:46;10.80;;;9.70;;
46266;SDS011;31998;48.798;15.066;2023-05-07T05:10:11;10.37;;;9.43;;
46266;SDS011;31998;48.798;15.066;2023-05-07T05:12:36;8.90;;;8.17;;
46266;SDS011;31998;48.798;15.066;2023-05-07T05:15:01;9.60;;;8.60;;
46266;SDS011;31998;48.798;15.066;2023-05-07T05:17:26;11.27;;;9.17;;
46266;SDS011;31998;48.798;15.066;2023-05-07T05:19:52;11.73;;;10.73;;
46266;SDS011;31998;48.798;15.066;2023-05-07T05:22:17;11.67;;;10.67;;
46266;SDS011;31998;48.798;15.066;2023-05-07T05:24:42;11.20;;;10.03;;
46266;SDS011;31998;48.798;15.066;2023-05-07T05:27:07;12.17;;;9.63;;
46266;SDS011;31998;48.798;15.066;2023-05-07T05:29:33;10.43;;;9.53;;
46266;SDS011;31998;48.798;15.066;2023-05-07T05:31:58;19.80;;;9.80;;
46266;SDS011;31998;48.798;15.066;2023-05-07T05:34:23;9.93;;;9.13;;
46266;SDS011;31998;48.798;15.066;2023-05-07T05:36:48;12.00;;;10.50;;
46266;SDS011;31998;48.798;15.066;2023-05-07T05:39:14;9.50;;;8.60;;
46266;SDS011;31998;48.798;15.066;2023-05-07T05:41:39;10.00;;;9.00;;
46266;SDS011;31998;48.798;15.066;2023-05-07T05:44:04;10.23;;;8.27;;
46266;SDS011;31998;48.798;15.066;2023-05-07T05:46:30;9.50;;;8.60;;
46266;SDS011;31998;48.798;15.066;2023-05-07T05:48:55;10.70;;;9.50;;
46266;SDS011;31998;48.798;15.066;2023-05-07T05:51:21;9.47;;;8.57;;
46266;SDS011;31998;48.798;15.066;2023-05-07T05:53:46;9.70;;;8.70;;
46266;SDS011;31998;48.798;15.066;2023-05-07T05:56:11;10.43;;;9.43;;
46266;SDS011;31998;48.798;15.066;2023-05-07T05:58:36;11.20;;;10.10;;
46266;SDS011;31998;48.798;15.066;2023-05-07T06:01:01;9.33;;;8.53;;
46266;SDS011;31998;48.798;15.066;2023-05-07T06:03:27;9.93;;;8.93;;
46266;SDS011;31998;48.798;15.066;2023-05-07T06:05:53;9.60;;;8.80;;
46266;SDS011;31998;48.798;15.066;2023-05-07T06:08:18;9.03;;;8.33;;
46266;SDS011;31998;48.798;15.066;2023-05-07T06:10:43;9.97;;;9.17;;
46266;SDS011;31998;48.798;15.066;2023-05-07T06:13:08;9.90;;;9.00;;
46266;SDS011;31998;48.798;15.066;2023-05-07T06:15:34;11.53;;;9.13;;
46266;SDS011;31998;48.798;15.066;2023-05-07T06:17:59;9.07;;;8.30;;
46266;SDS011;31998;48.798;15.066;2023-05-07T06:20:24;8.13;;;7.63;;
46266;SDS011;31998;48.798;15.066;2023-05-07T06:22:49;11.27;;;8.60;;
46266;SDS011;31998;48.798;15.066;2023-05-07T06:25:15;9.10;;;8.27;;
46266;SDS011;31998;48.798;15.066;2023-05-07T06:27:40;9.60;;;8.70;;
46266;SDS011;31998;48.798;15.066;2023-05-07T06:30:05;8.70;;;7.83;;
46266;SDS011;31998;48.798;15.066;2023-05-07T06:32:31;7.83;;;7.23;;
46266;SDS011;31998;48.798;15.066;2023-05-07T06:34:56;8.27;;;7.67;;
46266;SDS011;31998;48.798;15.066;2023-05-07T06:37:21;9.30;;;8.60;;
46266;SDS011;31998;48.798;15.066;2023-05-07T06:39:47;9.40;;;8.57;;
46266;SDS011;31998;48.798;15.066;2023-05-07T06:42:12;14.63;;;9.00;;
46266;SDS011;31998;48.798;15.066;2023-05-07T06:44:37;11.50;;;8.77;;
46266;SDS011;31998;48.798;15.066;2023-05-07T06:47:02;13.50;;;9.50;;
46266;SDS011;31998;48.798;15.066;2023-05-07T06:49:28;9.33;;;8.23;;
46266;SDS011;31998;48.798;15.066;2023-05-07T06:51:53;10.73;;;9.23;;
46266;SDS011;31998;48.798;15.066;2023-05-07T06:54:18;10.73;;;9.83;;
46266;SDS011;31998;48.798;15.066;2023-05-07T06:56:43;12.10;;;9.80;;
46266;SDS011;31998;48.798;15.066;2023-05-07T06:59:09;11.50;;;10.30;;
46266;SDS011;31998;48.798;15.066;2023-05-07T07:01:34;16.70;;;14.10;;
46266;SDS011;31998;48.798;15.066;2023-05-07T07:03:59;10.63;;;9.73;;
46266;SDS011;31998;48.798;15.066;2023-05-07T07:06:25;10.90;;;9.80;;
46266;SDS011;31998;48.798;15.066;2023-05-07T07:08:50;11.20;;;9.23;;
46266;SDS011;31998;48.798;15.066;2023-05-07T07:11:16;10.27;;;9.47;;
46266;SDS011;31998;48.798;15.066;2023-05-07T07:13:41;18.73;;;15.20;;
46266;SDS011;31998;48.798;15.066;2023-05-07T07:16:07;10.27;;;9.27;;
46266;SDS011;31998;48.798;15.066;2023-05-07T07:18:33;11.57;;;10.37;;
46266;SDS011;31998;48.798;15.066;2023-05-07T07:20:58;12.10;;;9.20;;
46266;SDS011;31998;48.798;15.066;2023-05-07T07:23:24;11.13;;;10.20;;
46266;SDS011;31998;48.798;15.066;2023-05-07T07:25:49;11.43;;;10.00;;
46266;SDS011;31998;48.798;15.066;2023-05-07T07:28:15;11.97;;;10.77;;
46266;SDS011;31998;48.798;15.066;2023-05-07T07:30:40;12.07;;;10.63;;
46266;SDS011;31998;48.798;15.066;2023-05-07T07:33:05;11.00;;;10.03;;
46266;SDS011;31998;48.798;15.066;2023-05-07T07:35:31;11.10;;;10.10;;
46266;SDS011;31998;48.798;15.066;2023-05-07T07:37:57;14.17;;;10.20;;
46266;SDS011;31998;48.798;15.066;2023-05-07T07:40:22;12.10;;;10.47;;
46266;SDS011;31998;48.798;15.066;2023-05-07T07:42:47;10.87;;;9.80;;
46266;SDS011;31998;48.798;15.066;2023-05-07T07:45:13;12.57;;;9.90;;
46266;SDS011;31998;48.798;15.066;2023-05-07T07:47:39;11.67;;;10.50;;
46266;SDS011;31998;48.798;15.066;2023-05-07T07:50:04;12.40;;;9.87;;
46266;SDS011;31998;48.798;15.066;2023-05-07T07:52:29;12.57;;;11.37;;
46266;SDS011;31998;48.798;15.066;2023-05-07T07:54:55;11.80;;;10.60;;
46266;SDS011;31998;48.798;15.066;2023-05-07T07:57:20;11.30;;;10.20;;
46266;SDS011;31998;48.798;15.066;2023-05-07T07:59:45;13.70;;;10.17;;
46266;SDS011;31998;48.798;15.066;2023-05-07T08:02:10;13.07;;;10.60;;
46266;SDS011;31998;48.798;15.066;2023-05-07T08:04:35;11.10;;;10.00;;
46266;SDS011;31998;48.798;15.066;2023-05-07T08:07:02;11.90;;;9.30;;
46266;SDS011;31998;48.798;15.066;2023-05-07T08:09:27;10.43;;;9.40;;
46266;SDS011;31998;48.798;15.066;2023-05-07T08:11:52;10.93;;;9.83;;
46266;SDS011;31998;48.798;15.066;2023-05-07T08:14:18;10.57;;;9.67;;
46266;SDS011;31998;48.798;15.066;2023-05-07T08:16:43;12.93;;;11.43;;
46266;SDS011;31998;48.798;15.066;2023-05-07T08:19:08;11.67;;;10.57;;
46266;SDS011;31998;48.798;15.066;2023-05-07T08:21:34;12.57;;;10.63;;
46266;SDS011;31998;48.798;15.066;2023-05-07T08:23:59;11.13;;;10.23;;
46266;SDS011;31998;48.798;15.066;2023-05-07T08:26:24;12.23;;;11.07;;
46266;SDS011;31998;48.798;15.066;2023-05-07T08:28:50;11.67;;;10.57;;
46266;SDS011;31998;48.798;15.066;2023-05-07T08:31:15;11.40;;;10.30;;
46266;SDS011;31998;48.798;15.066;2023-05-07T08:33:40;14.03;;;8.40;;
46266;SDS011;31998;48.798;15.066;2023-05-07T08:36:06;10.37;;;9.57;;
46266;SDS011;31998;48.798;15.066;2023-05-07T08:38:31;11.83;;;9.50;;
46266;SDS011;31998;48.798;15.066;2023-05-07T08:40:56;10.70;;;9.70;;
46266;SDS011;31998;48.798;15.066;2023-05-07T08:43:21;11.73;;;9.60;;
46266;SDS011;31998;48.798;15.066;2023-05-07T08:45:48;10.03;;;9.07;;
46266;SDS011;31998;48.798;15.066;2023-05-07T08:48:15;10.50;;;9.50;;
46266;SDS011;31998;48.798;15.066;2023-05-07T08:50:40;16.43;;;10.27;;
46266;SDS011;31998;48.798;15.066;2023-05-07T08:53:05;11.70;;;8.80;;
46266;SDS011;31998;48.798;15.066;2023-05-07T08:55:31;10.43;;;9.53;;
46266;SDS011;31998;48.798;15.066;2023-05-07T08:57:56;10.00;;;9.20;;
46266;SDS011;31998;48.798;15.066;2023-05-07T09:00:21;11.53;;;10.50;;
46266;SDS011;31998;48.798;15.066;2023-05-07T09:02:46;11.17;;;10.17;;
46266;SDS011;31998;48.798;15.066;2023-05-07T09:05:12;9.50;;;8.70;;
46266;SDS011;31998;48.798;15.066;2023-05-07T09:07:37;9.70;;;8.67;;
46266;SDS011;31998;48.798;15.066;2023-05-07T09:10:03;12.50;;;10.00;;
46266;SDS011;31998;48.798;15.066;2023-05-07T09:12:29;12.10;;;9.93;;
46266;SDS011;31998;48.798;15.066;2023-05-07T09:14:54;9.90;;;9.00;;
46266;SDS011;31998;48.798;15.066;2023-05-07T09:17:19;7.60;;;7.00;;
46266;SDS011;31998;48.798;15.066;2023-05-07T09:19:45;13.80;;;7.87;;
46266;SDS011;31998;48.798;15.066;2023-05-07T09:22:11;10.37;;;7.63;;
46266;SDS011;31998;48.798;15.066;2023-05-07T09:24:36;8.70;;;7.90;;
46266;SDS011;31998;48.798;15.066;2023-05-07T09:27:03;12.80;;;7.23;;
46266;SDS011;31998;48.798;15.066;2023-05-07T09:29:28;7.60;;;7.03;;
46266;SDS011;31998;48.798;15.066;2023-05-07T09:31:55;9.30;;;8.50;;
46266;SDS011;31998;48.798;15.066;2023-05-07T09:34:20;9.07;;;8.27;;
46266;SDS011;31998;48.798;15.066;2023-05-07T09:36:46;9.87;;;8.97;;
46266;SDS011;31998;48.798;15.066;2023-05-07T09:39:11;9.57;;;8.77;;
46266;SDS011;31998;48.798;15.066;2023-05-07T09:41:44;12.33;;;8.73;;
46266;SDS011;31998;48.798;15.066;2023-05-07T09:44:10;12.50;;;11.13;;
46266;SDS011;31998;48.798;15.066;2023-05-07T09:46:36;8.30;;;7.80;;
46266;SDS011;31998;48.798;15.066;2023-05-07T09:49:02;9.50;;;8.70;;
46266;SDS011;31998;48.798;15.066;2023-05-07T09:51:33;8.23;;;7.50;;
46266;SDS011;31998;48.798;15.066;2023-05-07T09:54:01;9.80;;;8.40;;
46266;SDS011;31998;48.798;15.066;2023-05-07T09:56:29;9.50;;;8.60;;
46266;SDS011;31998;48.798;15.066;2023-05-07T09:58:54;9.70;;;8.80;;
46266;SDS011;31998;48.798;15.066;2023-05-07T10:01:21;8.87;;;8.17;;
46266;SDS011;31998;48.798;15.066;2023-05-07T10:03:47;10.10;;;9.10;;
46266;SDS011;31998;48.798;15.066;2023-05-07T10:06:13;10.93;;;10.00;;
46266;SDS011;31998;48.798;15.066;2023-05-07T10:08:39;10.77;;;9.80;;
46266;SDS011;31998;48.798;15.066;2023-05-07T10:11:05;11.00;;;10.00;;
46266;SDS011;31998;48.798;15.066;2023-05-07T10:13:31;12.70;;;11.10;;
46266;SDS011;31998;48.798;15.066;2023-05-07T10:15:56;13.80;;;9.80;;
46266;SDS011;31998;48.798;15.066;2023-05-07T10:18:22;9.10;;;8.30;;
46266;SDS011;31998;48.798;15.066;2023-05-07T10:20:48;11.33;;;9.63;;
46266;SDS011;31998;48.798;15.066;2023-05-07T10:23:16;9.50;;;8.60;;
46266;SDS011;31998;48.798;15.066;2023-05-07T10:25:43;10.80;;;9.77;;
46266;SDS011;31998;48.798;15.066;2023-05-07T10:28:08;9.70;;;8.73;;
46266;SDS011;31998;48.798;15.066;2023-05-07T10:33:06;9.70;;;8.90;;
46266;SDS011;31998;48.798;15.066;2023-05-07T10:35:40;10.93;;;9.93;;
46266;SDS011;31998;48.798;15.066;2023-05-07T10:38:06;10.63;;;9.53;;
46266;SDS011;31998;48.798;15.066;2023-05-07T10:40:31;9.87;;;8.97;;
46266;SDS011;31998;48.798;15.066;2023-05-07T10:42:58;10.03;;;9.03;;
46266;SDS011;31998;48.798;15.066;2023-05-07T10:45:24;10.00;;;9.00;;
46266;SDS011;31998;48.798;15.066;2023-05-07T10:50:34;8.70;;;8.00;;
46266;SDS011;31998;48.798;15.066;2023-05-07T10:55:43;9.50;;;8.60;;
46266;SDS011;31998;48.798;15.066;2023-05-07T11:00:46;8.67;;;7.87;;
46266;SDS011;31998;48.798;15.066;2023-05-07T11:03:12;11.00;;;9.70;;
46266;SDS011;31998;48.798;15.066;2023-05-07T11:05:37;10.97;;;8.70;;
46266;SDS011;31998;48.798;15.066;2023-05-07T11:08:03;9.67;;;8.87;;
46266;SDS011;31998;48.798;15.066;2023-05-07T11:13:12;9.57;;;8.87;;
46266;SDS011;31998;48.798;15.066;2023-05-07T11:15:39;8.30;;;7.50;;
46266;SDS011;31998;48.798;15.066;2023-05-07T11:18:05;9.10;;;8.20;;
46266;SDS011;31998;48.798;15.066;2023-05-07T11:26:04;8.93;;;8.13;;
46266;SDS011;31998;48.798;15.066;2023-05-07T11:28:30;9.87;;;8.97;;
46266;SDS011;31998;48.798;15.066;2023-05-07T11:30:56;9.53;;;8.83;;
46266;SDS011;31998;48.798;15.066;2023-05-07T11:33:22;7.40;;;6.90;;
46266;SDS011;31998;48.798;15.066;2023-05-07T11:35:47;9.00;;;8.40;;
46266;SDS011;31998;48.798;15.066;2023-05-07T11:38:12;8.33;;;7.57;;
46266;SDS011;31998;48.798;15.066;2023-05-07T11:43:16;10.13;;;9.20;;
46266;SDS011;31998;48.798;15.066;2023-05-07T11:45:41;7.40;;;7.00;;
46266;SDS011;31998;48.798;15.066;2023-05-07T11:48:06;8.73;;;8.00;;
46266;SDS011;31998;48.798;15.066;2023-05-07T11:50:31;9.80;;;8.03;;
46266;SDS011;31998;48.798;15.066;2023-05-07T11:52:57;10.33;;;9.50;;
46266;SDS011;31998;48.798;15.066;2023-05-07T11:55:23;9.60;;;8.70;;
46266;SDS011;31998;48.798;15.066;2023-05-07T11:57:49;9.60;;;8.70;;
46266;SDS011;31998;48.798;15.066;2023-05-07T12:00:15;8.47;;;7.67;;
46266;SDS011;31998;48.798;15.066;2023-05-07T12:02:41;8.37;;;7.67;;
46266;SDS011;31998;48.798;15.066;2023-05-07T12:05:07;9.23;;;8.40;;
46266;SDS011;31998;48.798;15.066;2023-05-07T12:07:33;8.90;;;8.10;;
46266;SDS011;31998;48.798;15.066;2023-05-07T12:09:58;8.70;;;7.90;;
46266;SDS011;31998;48.798;15.066;2023-05-07T12:12:23;10.90;;;9.60;;
46266;SDS011;31998;48.798;15.066;2023-05-07T12:14:48;7.80;;;7.30;;
46266;SDS011;31998;48.798;15.066;2023-05-07T12:17:14;8.40;;;7.77;;
46266;SDS011;31998;48.798;15.066;2023-05-07T12:19:40;7.17;;;6.63;;
46266;SDS011;31998;48.798;15.066;2023-05-07T12:22:09;6.30;;;5.77;;
46266;SDS011;31998;48.798;15.066;2023-05-07T12:24:47;6.47;;;6.00;;
46266;SDS011;31998;48.798;15.066;2023-05-07T12:27:16;6.13;;;5.70;;
46266;SDS011;31998;48.798;15.066;2023-05-07T12:29:47;6.03;;;5.53;;
46266;SDS011;31998;48.798;15.066;2023-05-07T12:32:14;6.03;;;5.73;;
46266;SDS011;31998;48.798;15.066;2023-05-07T12:34:40;6.77;;;6.20;;
46266;SDS011;31998;48.798;15.066;2023-05-07T12:37:05;6.23;;;5.83;;
46266;SDS011;31998;48.798;15.066;2023-05-07T12:39:30;6.23;;;5.53;;
46266;SDS011;31998;48.798;15.066;2023-05-07T12:41:56;5.53;;;5.13;;
46266;SDS011;31998;48.798;15.066;2023-05-07T12:44:22;6.80;;;6.30;;
46266;SDS011;31998;48.798;15.066;2023-05-07T12:46:48;6.70;;;6.30;;
46266;SDS011;31998;48.798;15.066;2023-05-07T12:49:13;6.70;;;6.20;;
46266;SDS011;31998;48.798;15.066;2023-05-07T12:51:38;6.40;;;5.90;;
46266;SDS011;31998;48.798;15.066;2023-05-07T12:54:03;6.83;;;6.30;;
46266;SDS011;31998;48.798;15.066;2023-05-07T12:56:35;6.37;;;5.87;;
46266;SDS011;31998;48.798;15.066;2023-05-07T12:59:00;6.77;;;5.60;;
46266;SDS011;31998;48.798;15.066;2023-05-07T13:01:29;5.80;;;5.40;;
46266;SDS011;31998;48.798;15.066;2023-05-07T13:03:54;6.30;;;5.90;;
46266;SDS011;31998;48.798;15.066;2023-05-07T13:06:20;5.00;;;4.80;;
46266;SDS011;31998;48.798;15.066;2023-05-07T13:08:45;5.60;;;4.97;;
46266;SDS011;31998;48.798;15.066;2023-05-07T13:11:11;5.60;;;5.30;;
46266;SDS011;31998;48.798;15.066;2023-05-07T13:13:37;5.27;;;4.77;;
46266;SDS011;31998;48.798;15.066;2023-05-07T13:16:03;7.30;;;5.53;;
46266;SDS011;31998;48.798;15.066;2023-05-07T13:18:29;4.90;;;4.50;;
46266;SDS011;31998;48.798;15.066;2023-05-07T13:20:55;5.23;;;4.93;;
46266;SDS011;31998;48.798;15.066;2023-05-07T13:23:21;4.80;;;4.27;;
46266;SDS011;31998;48.798;15.066;2023-05-07T13:25:46;5.73;;;5.43;;
46266;SDS011;31998;48.798;15.066;2023-05-07T13:28:11;4.90;;;4.60;;
46266;SDS011;31998;48.798;15.066;2023-05-07T13:30:37;4.87;;;4.67;;
46266;SDS011;31998;48.798;15.066;2023-05-07T13:33:02;8.63;;;7.03;;
46266;SDS011;31998;48.798;15.066;2023-05-07T13:35:28;5.37;;;5.07;;
46266;SDS011;31998;48.798;15.066;2023-05-07T13:37:53;9.90;;;6.80;;
46266;SDS011;31998;48.798;15.066;2023-05-07T13:40:19;7.17;;;6.57;;
46266;SDS011;31998;48.798;15.066;2023-05-07T13:42:45;9.23;;;6.00;;
46266;SDS011;31998;48.798;15.066;2023-05-07T13:45:10;6.30;;;5.70;;
46266;SDS011;31998;48.798;15.066;2023-05-07T13:47:35;8.70;;;6.87;;
46266;SDS011;31998;48.798;15.066;2023-05-07T13:50:00;6.00;;;5.57;;
46266;SDS011;31998;48.798;15.066;2023-05-07T13:52:26;9.20;;;7.50;;
46266;SDS011;31998;48.798;15.066;2023-05-07T13:54:51;8.07;;;7.33;;
46266;SDS011;31998;48.798;15.066;2023-05-07T13:57:17;6.80;;;6.20;;
46266;SDS011;31998;48.798;15.066;2023-05-07T13:59:42;7.90;;;7.20;;
46266;SDS011;31998;48.798;15.066;2023-05-07T14:02:07;8.07;;;7.23;;
46266;SDS011;31998;48.798;15.066;2023-05-07T14:04:34;7.60;;;7.00;;
46266;SDS011;31998;48.798;15.066;2023-05-07T14:06:59;7.50;;;7.00;;
46266;SDS011;31998;48.798;15.066;2023-05-07T14:09:25;7.37;;;6.67;;
46266;SDS011;31998;48.798;15.066;2023-05-07T14:11:50;6.10;;;5.53;;
46266;SDS011;31998;48.798;15.066;2023-05-07T14:14:17;5.93;;;5.50;;
46266;SDS011;31998;48.798;15.066;2023-05-07T14:16:42;5.47;;;5.17;;
46266;SDS011;31998;48.798;15.066;2023-05-07T14:19:07;6.33;;;5.73;;
46266;SDS011;31998;48.798;15.066;2023-05-07T14:21:32;5.13;;;4.83;;
46266;SDS011;31998;48.798;15.066;2023-05-07T14:23:57;5.37;;;4.93;;
46266;SDS011;31998;48.798;15.066;2023-05-07T14:26:23;5.33;;;5.00;;
46266;SDS011;31998;48.798;15.066;2023-05-07T14:28:48;6.73;;;5.50;;
46266;SDS011;31998;48.798;15.066;2023-05-07T14:31:13;6.97;;;6.47;;
46266;SDS011;31998;48.798;15.066;2023-05-07T14:33:40;7.37;;;6.87;;
46266;SDS011;31998;48.798;15.066;2023-05-07T14:36:05;7.53;;;6.93;;
46266;SDS011;31998;48.798;15.066;2023-05-07T14:38:30;6.33;;;5.87;;